Time;durP1;ratioP1;P1;durP2;ratioP2;P2;SDS_P1;SDS_P2;PMS_P1;PMS_P2;Temp;Humidity;BMP_temperature;BMP_pressure;BME280_temperature;BME280_humidity;BME280_pressure;Samples;Min_cycle;Max_cycle;Signal;HPM_P1;HPM_P2
2024/01/14 00:00:32;;;;;;;0.00;0.00;;;4.60;71.80;;;;;;5087574;28;20202;-27
2024/01/14 00:03:04;;;;;;;0.00;0.00;;;4.60;71.90;;;;;;5079036;28;20212;-27
2024/01/14 00:05:32;;;;;;;0.00;0.00;;;4.60;72.00;;;;;;5084353;28;20206;-26
2024/01/14 00:07:59;;;;;;;0.00;0.00;;;4.60;72.00;;;;;;5076429;28;20294;-27
2024/01/14 00:10:27;;;;;;;0.00;0.00;;;4.60;71.90;;;;;;5083597;28;20221;-27
2024/01/14 00:12:56;;;;;;;0.00;0.00;;;4.60;72.00;;;;;;5078734;28;20316;-27
2024/01/14 00:15:24;;;;;;;0.00;0.00;;;4.60;72.00;;;;;;5081427;28;21052;-27
2024/01/14 00:17:53;;;;;;;0.00;0.00;;;4.60;72.00;;;;;;5083038;28;20267;-27
2024/01/14 00:20:21;;;;;;;0.00;0.00;;;4.60;72.00;;;;;;5077864;28;20213;-27
2024/01/14 00:22:48;;;;;;;0.00;0.00;;;4.60;72.10;;;;;;5083398;28;20493;-27
2024/01/14 00:25:21;;;;;;;0.00;0.00;;;4.60;71.90;;;;;;5087020;28;20195;-27
2024/01/14 00:27:49;;;;;;;0.00;0.00;;;4.60;72.00;;;;;;5086884;28;20259;-27
2024/01/14 00:30:16;;;;;;;0.00;0.00;;;4.60;72.10;;;;;;5086621;28;20206;-27
2024/01/14 00:32:46;;;;;;;0.00;0.00;;;4.70;72.10;;;;;;5088303;28;20203;-27
2024/01/14 00:35:13;;;;;;;0.00;0.00;;;4.70;72.00;;;;;;5088266;28;20207;-27
2024/01/14 00:37:41;;;;;;;0.00;0.00;;;4.70;72.00;;;;;;5083282;28;20234;-27
2024/01/14 00:40:14;;;;;;;0.00;0.00;;;4.70;72.00;;;;;;5089451;28;20195;-27
2024/01/14 00:42:41;;;;;;;0.00;0.00;;;4.70;72.00;;;;;;5088668;28;20272;-27
2024/01/14 00:45:13;;;;;;;0.00;0.00;;;4.70;72.00;;;;;;5069178;28;20211;-27
2024/01/14 00:47:42;;;;;;;0.00;0.00;;;4.70;72.00;;;;;;5069322;28;20633;-27
2024/01/14 00:50:10;;;;;;;0.00;0.00;;;4.70;72.20;;;;;;5082451;28;20207;-27
2024/01/14 00:52:37;;;;;;;0.00;0.00;;;4.70;72.00;;;;;;5072280;28;20206;-27
2024/01/14 00:55:08;;;;;;;0.00;0.00;;;4.70;72.00;;;;;;5084205;28;20215;-27
2024/01/14 00:57:36;;;;;;;0.00;0.00;;;4.70;72.80;;;;;;5076249;28;20207;-27
2024/01/14 01:00:05;;;;;;;0.00;0.00;;;4.70;72.00;;;;;;5089491;28;20231;-27
2024/01/14 01:02:33;;;;;;;0.00;0.00;;;4.70;72.00;;;;;;5084641;28;20240;-26
2024/01/14 01:05:03;;;;;;;0.00;0.00;;;4.70;72.10;;;;;;5091780;28;20676;-27
2024/01/14 01:07:31;;;;;;;0.00;0.00;;;4.70;72.10;;;;;;5088407;28;20292;-27
2024/01/14 01:09:58;;;;;;;0.00;0.00;;;4.70;72.10;;;;;;5083470;28;20207;-27
2024/01/14 01:12:25;;;;;;;0.00;0.00;;;4.70;72.20;;;;;;5089570;28;20223;-27
2024/01/14 01:14:53;;;;;;;0.00;0.00;;;4.70;72.20;;;;;;5086631;28;20222;-27
2024/01/14 01:17:20;;;;;;;0.00;0.00;;;4.70;72.30;;;;;;5088594;28;20829;-26
2024/01/14 01:19:47;;;;;;;0.00;0.00;;;4.70;72.40;;;;;;5086163;28;20215;-26
2024/01/14 01:22:22;;;;;;;0.00;0.00;;;4.70;72.20;;;;;;5088346;28;20215;-26
2024/01/14 01:24:49;;;;;;;0.00;0.00;;;4.70;72.20;;;;;;5086904;28;20279;-26
2024/01/14 01:27:16;;;;;;;0.00;0.00;;;4.80;72.40;;;;;;5086442;28;20203;-26
2024/01/14 01:29:44;;;;;;;0.00;0.00;;;4.80;72.30;;;;;;5075843;28;20218;-26
2024/01/14 01:32:11;;;;;;;0.00;0.00;;;4.80;72.30;;;;;;5086212;28;20219;-26
2024/01/14 01:34:39;;;;;;;0.00;0.00;;;4.80;72.20;;;;;;5084031;28;20593;-26
2024/01/14 01:37:06;;;;;;;0.00;0.00;;;4.80;72.10;;;;;;5085365;28;20291;-26
2024/01/14 01:39:34;;;;;;;0.00;0.00;;;4.80;72.20;;;;;;5085636;28;20217;-26
2024/01/14 01:42:04;;;;;;;0.00;0.00;;;4.80;72.20;;;;;;5088363;28;20209;-27
2024/01/14 01:44:31;;;;;;;0.00;0.00;;;4.80;72.20;;;;;;5080800;28;20223;-26
2024/01/14 01:47:01;;;;;;;0.00;0.00;;;4.80;72.20;;;;;;5090846;28;20211;-26
2024/01/14 01:49:29;;;;;;;0.00;0.00;;;4.80;72.30;;;;;;5089202;28;20207;-26
2024/01/14 01:51:59;;;;;;;0.00;0.00;;;4.80;72.30;;;;;;5089211;28;20205;-26
2024/01/14 01:54:29;;;;;;;0.00;0.00;;;4.80;72.40;;;;;;5082394;28;20269;-27
2024/01/14 01:57:00;;;;;;;0.00;0.00;;;4.80;72.40;;;;;;5086476;28;20593;-27
2024/01/14 01:59:27;;;;;;;0.00;0.00;;;4.80;72.30;;;;;;5076224;28;20214;-26
2024/01/14 02:01:54;;;;;;;0.00;0.00;;;4.80;72.30;;;;;;5074401;28;20199;-26
2024/01/14 02:04:21;;;;;;;0.00;0.00;;;4.80;72.30;;;;;;5081356;28;20216;-27
2024/01/14 02:06:51;;;;;;;0.00;0.00;;;4.80;72.20;;;;;;5077831;28;20242;-26
2024/01/14 02:09:18;;;;;;;0.00;0.00;;;4.80;72.20;;;;;;5062462;28;20203;-26
2024/01/14 02:11:46;;;;;;;0.00;0.00;;;4.80;72.20;;;;;;5078262;28;20269;-26
2024/01/14 02:14:15;;;;;;;0.00;0.00;;;4.80;72.30;;;;;;5068761;28;20199;-27
2024/01/14 02:16:42;;;;;;;0.00;0.00;;;4.80;72.20;;;;;;5083066;28;20612;-27
2024/01/14 02:19:12;;;;;;;0.00;0.00;;;4.80;72.30;;;;;;5078968;28;20685;-26
2024/01/14 02:21:42;;;;;;;0.00;0.00;;;4.80;72.30;;;;;;5077878;28;20222;-27
2024/01/14 02:24:23;;;;;;;0.00;0.00;;;4.80;72.30;;;;;;5081233;28;20223;-26
2024/01/14 02:26:50;;;;;;;0.00;0.00;;;4.80;72.40;;;;;;5082167;28;20682;-26
2024/01/14 02:29:21;;;;;;;0.00;0.00;;;4.80;72.40;;;;;;5058916;28;20215;-26
2024/01/14 02:31:48;;;;;;;0.00;0.00;;;4.80;72.40;;;;;;5081978;28;20203;-27
2024/01/14 02:34:16;;;;;;;0.00;0.00;;;4.80;72.30;;;;;;5082241;28;20202;-26
2024/01/14 02:36:43;;;;;;;0.00;0.00;;;4.80;72.30;;;;;;5081351;28;20238;-36
2024/01/14 02:39:16;;;;;;;0.00;0.00;;;4.80;72.30;;;;;;5085408;28;20211;-35
2024/01/14 02:41:44;;;;;;;0.00;0.00;;;4.80;72.30;;;;;;5088200;28;20203;-36
2024/01/14 02:44:12;;;;;;;0.00;0.00;;;4.80;72.30;;;;;;5089339;28;20732;-35
2024/01/14 02:46:41;;;;;;;0.00;0.00;;;4.80;72.40;;;;;;5084231;28;20214;-35
2024/01/14 02:49:10;;;;;;;0.00;0.00;;;4.80;72.40;;;;;;5083209;28;20217;-34
2024/01/14 02:51:37;;;;;;;0.00;0.00;;;4.80;72.30;;;;;;5087646;28;20306;-35
2024/01/14 02:54:05;;;;;;;0.00;0.00;;;4.80;72.40;;;;;;5085907;28;20227;-37
2024/01/14 02:56:37;;;;;;;0.00;0.00;;;4.80;72.40;;;;;;5086060;28;20342;-37
2024/01/14 02:59:04;;;;;;;0.00;0.00;;;4.80;72.40;;;;;;5084252;28;20218;-26
2024/01/14 03:01:31;;;;;;;0.00;0.00;;;4.80;72.40;;;;;;5080105;28;20199;-26
2024/01/14 03:04:03;;;;;;;0.00;0.00;;;4.80;72.40;;;;;;5055082;28;20226;-27
2024/01/14 03:06:33;;;;;;;0.00;0.00;;;4.80;72.40;;;;;;5078261;28;20327;-27
2024/01/14 03:09:00;;;;;;;0.00;0.00;;;4.80;72.40;;;;;;5082164;28;20234;-26
2024/01/14 03:11:28;;;;;;;0.00;0.00;;;4.80;72.40;;;;;;5084680;28;20252;-26
2024/01/14 03:13:55;;;;;;;0.00;0.00;;;4.80;72.40;;;;;;5084351;28;20223;-27
2024/01/14 03:16:24;;;;;;;0.00;0.00;;;4.80;72.40;;;;;;5081200;28;20697;-27
2024/01/14 03:18:51;;;;;;;0.00;0.00;;;4.80;72.50;;;;;;5079754;28;20605;-26
2024/01/14 03:21:19;;;;;;;0.00;0.00;;;4.80;72.40;;;;;;5057505;28;20326;-26
2024/01/14 03:23:49;;;;;;;0.00;0.00;;;4.80;72.40;;;;;;5085244;28;20221;-26
2024/01/14 03:26:21;;;;;;;0.00;0.00;;;4.80;72.30;;;;;;5082472;28;20209;-27
2024/01/14 03:28:48;;;;;;;0.00;0.00;;;4.80;72.40;;;;;;5080894;28;20252;-26
2024/01/14 03:31:18;;;;;;;0.00;0.00;;;4.80;72.40;;;;;;5081005;28;20264;-26
2024/01/14 03:33:47;;;;;;;0.00;0.00;;;4.80;72.40;;;;;;5065959;28;20697;-27
2024/01/14 03:36:18;;;;;;;0.00;0.00;;;4.70;72.40;;;;;;5079151;28;20236;-26
2024/01/14 03:38:45;;;;;;;0.00;0.00;;;4.70;72.30;;;;;;5088041;28;20252;-27
2024/01/14 03:41:14;;;;;;;0.00;0.00;;;4.70;72.30;;;;;;5088977;28;20214;-26
2024/01/14 03:43:42;;;;;;;0.00;0.00;;;4.70;72.40;;;;;;5066260;28;20229;-26
2024/01/14 03:46:12;;;;;;;0.00;0.00;;;4.70;72.50;;;;;;5081184;28;20649;-27
2024/01/14 03:48:41;;;;;;;0.00;0.00;;;4.70;72.40;;;;;;5087246;28;20230;-26
2024/01/14 03:51:11;;;;;;;0.00;0.00;;;4.70;72.30;;;;;;5087920;28;20226;-26
2024/01/14 03:53:41;;;;;;;0.00;0.00;;;4.70;72.30;;;;;;5068080;28;20206;-26
2024/01/14 03:56:08;;;;;;;0.00;0.00;;;4.70;72.40;;;;;;5084970;28;20721;-26
2024/01/14 03:58:36;;;;;;;0.00;0.00;;;4.70;72.50;;;;;;5083615;28;20207;-26
2024/01/14 04:01:04;;;;;;;0.00;0.00;;;4.70;72.40;;;;;;5076868;28;20208;-26
2024/01/14 04:03:31;;;;;;;0.00;0.00;;;4.70;72.40;;;;;;5085631;28;20219;-26
2024/01/14 04:06:03;;;;;;;0.00;0.00;;;4.70;72.40;;;;;;5085435;28;20656;-26
2024/01/14 04:08:33;;;;;;;0.00;0.00;;;4.70;72.40;;;;;;5066703;28;20628;-26
2024/01/14 04:11:00;;;;;;;0.00;0.00;;;4.70;72.40;;;;;;5072894;28;20207;-26
2024/01/14 04:13:27;;;;;;;0.00;0.00;;;4.70;72.40;;;;;;5085168;28;20900;-26
2024/01/14 04:15:58;;;;;;;0.00;0.00;;;4.70;72.40;;;;;;5080752;28;20907;-26
2024/01/14 04:18:30;;;;;;;0.00;0.00;;;4.70;72.30;;;;;;5079997;28;20689;-26
2024/01/14 04:20:57;;;;;;;0.00;0.00;;;4.70;72.40;;;;;;5082423;28;20207;-26
2024/01/14 04:23:25;;;;;;;0.00;0.00;;;4.60;72.40;;;;;;5079102;28;20215;-26
2024/01/14 04:25:52;;;;;;;0.00;0.00;;;4.60;72.40;;;;;;5080647;28;20510;-26
2024/01/14 04:28:24;;;;;;;0.00;0.00;;;4.60;72.40;;;;;;5072505;28;20908;-26
2024/01/14 04:30:53;;;;;;;0.00;0.00;;;4.60;72.50;;;;;;5078660;28;20215;-26
2024/01/14 04:33:21;;;;;;;0.00;0.00;;;4.60;72.40;;;;;;5086632;28;20215;-26
2024/01/14 04:35:48;;;;;;;0.00;0.00;;;4.60;72.40;;;;;;5084422;28;20221;-26
2024/01/14 04:38:18;;;;;;;0.00;0.00;;;4.60;72.40;;;;;;5084492;28;20197;-26
2024/01/14 04:40:45;;;;;;;0.00;0.00;;;4.60;72.30;;;;;;5088181;28;20245;-26
2024/01/14 04:43:14;;;;;;;0.00;0.00;;;4.60;72.40;;;;;;5083046;28;20756;-26
2024/01/14 04:45:42;;;;;;;0.00;0.00;;;4.50;72.20;;;;;;5087233;28;20216;-26
2024/01/14 04:48:09;;;;;;;0.00;0.00;;;4.50;72.20;;;;;;5080403;28;20219;-26
2024/01/14 04:50:41;;;;;;;0.00;0.00;;;4.50;72.20;;;;;;5083960;28;20535;-26
2024/01/14 04:53:09;;;;;;;0.00;0.00;;;4.50;72.30;;;;;;5085067;28;20756;-26
2024/01/14 04:55:38;;;;;;;0.00;0.00;;;4.50;72.30;;;;;;5084219;28;20288;-26
2024/01/14 04:58:08;;;;;;;0.00;0.00;;;4.40;72.30;;;;;;5067222;28;20199;-26
2024/01/14 05:00:35;;;;;;;0.00;0.00;;;4.40;72.30;;;;;;5066190;28;20219;-26
2024/01/14 05:03:03;;;;;;;0.00;0.00;;;4.40;72.30;;;;;;5067960;28;20256;-26
2024/01/14 05:05:32;;;;;;;0.00;0.00;;;4.40;72.40;;;;;;5084958;28;20280;-27
2024/01/14 05:08:00;;;;;;;0.00;0.00;;;4.40;72.40;;;;;;5071570;28;20203;-26
2024/01/14 05:10:27;;;;;;;0.00;0.00;;;4.40;72.40;;;;;;5079742;28;20671;-26
2024/01/14 05:12:57;;;;;;;0.00;0.00;;;4.40;72.40;;;;;;5089784;28;20214;-26
2024/01/14 05:15:26;;;;;;;0.00;0.00;;;4.40;73.30;;;;;;5069650;28;20640;-26
2024/01/14 05:17:58;;;;;;;0.00;0.00;;;4.40;72.50;;;;;;5081144;28;20199;-26
2024/01/14 05:20:28;;;;;;;0.00;0.00;;;4.40;72.40;;;;;;5073513;28;20565;-26
2024/01/14 05:22:58;;;;;;;0.00;0.00;;;4.40;72.40;;;;;;5069746;28;20633;-26
2024/01/14 05:25:25;;;;;;;0.00;0.00;;;4.40;72.40;;;;;;5073198;28;20203;-26
2024/01/14 05:27:52;;;;;;;0.00;0.00;;;4.40;72.50;;;;;;5090637;28;20217;-26
2024/01/14 05:30:22;;;;;;;0.00;0.00;;;4.40;72.50;;;;;;5088948;28;20230;-26
2024/01/14 05:32:50;;;;;;;0.00;0.00;;;4.30;72.50;;;;;;5083265;28;20199;-26
2024/01/14 05:35:20;;;;;;;0.00;0.00;;;4.40;72.60;;;;;;5081417;28;20290;-26
2024/01/14 05:37:49;;;;;;;0.00;0.00;;;4.40;72.60;;;;;;5087857;28;20198;-26
2024/01/14 05:40:19;;;;;;;0.00;0.00;;;4.40;72.60;;;;;;5088224;28;20782;-26
2024/01/14 05:42:46;;;;;;;0.00;0.00;;;4.40;72.70;;;;;;5067192;28;20203;-26
2024/01/14 05:45:16;;;;;;;0.00;0.00;;;4.40;72.60;;;;;;5083643;28;20260;-26
2024/01/14 05:47:43;;;;;;;0.00;0.00;;;4.40;72.70;;;;;;5084832;28;20211;-26
2024/01/14 05:50:10;;;;;;;0.00;0.00;;;4.40;72.70;;;;;;5085050;28;20209;-26
2024/01/14 05:52:38;;;;;;;0.00;0.00;;;4.40;72.70;;;;;;5083381;28;20581;-26
2024/01/14 05:55:10;;;;;;;0.00;0.00;;;4.40;72.70;;;;;;5086039;28;20214;-26
2024/01/14 05:57:40;;;;;;;0.00;0.00;;;4.40;72.70;;;;;;5087200;28;20242;-26
2024/01/14 06:00:07;;;;;;;0.00;0.00;;;4.40;72.70;;;;;;5076311;28;20617;-26
2024/01/14 06:02:37;;;;;;;0.00;0.00;;;4.40;72.70;;;;;;5080031;28;20595;-26
2024/01/14 06:05:05;;;;;;;0.00;0.00;;;4.40;72.60;;;;;;5077241;28;20618;-26
2024/01/14 06:07:34;;;;;;;0.00;0.00;;;4.40;72.70;;;;;;5075981;28;20231;-26
2024/01/14 06:10:04;;;;;;;0.00;0.00;;;4.40;72.70;;;;;;5082870;28;20581;-26
2024/01/14 06:12:36;;;;;;;0.00;0.00;;;4.40;72.70;;;;;;5082814;28;20685;-26
2024/01/14 06:15:03;;;;;;;0.00;0.00;;;4.40;72.70;;;;;;5079213;28;20705;-26
2024/01/14 06:17:35;;;;;;;0.00;0.00;;;4.40;72.80;;;;;;5084788;28;20256;-26
2024/01/14 06:20:03;;;;;;;0.00;0.00;;;4.40;72.70;;;;;;5077580;28;20216;-26
2024/01/14 06:22:33;;;;;;;0.00;0.00;;;4.50;72.70;;;;;;5084609;28;20302;-26
2024/01/14 06:25:00;;;;;;;0.00;0.00;;;4.50;72.70;;;;;;5082348;28;20312;-26
2024/01/14 06:27:27;;;;;;;0.00;0.00;;;4.50;72.70;;;;;;5081298;28;20553;-26
2024/01/14 06:29:57;;;;;;;0.00;0.00;;;4.50;72.70;;;;;;5078482;28;20225;-26
2024/01/14 06:32:24;;;;;;;0.00;0.00;;;4.50;72.80;;;;;;5085970;28;20333;-26
2024/01/14 06:34:54;;;;;;;0.00;0.00;;;4.50;72.80;;;;;;5085356;28;20676;-26
2024/01/14 06:37:24;;;;;;;0.00;0.00;;;4.50;72.80;;;;;;5084820;28;20320;-26
2024/01/14 06:39:51;;;;;;;0.00;0.00;;;4.50;72.80;;;;;;5073088;28;20195;-26
2024/01/14 06:42:19;;;;;;;0.00;0.00;;;4.50;72.80;;;;;;5079559;28;20226;-26
2024/01/14 06:44:46;;;;;;;0.00;0.00;;;4.50;72.80;;;;;;5073463;28;20195;-26
2024/01/14 06:47:13;;;;;;;0.00;0.00;;;4.50;72.80;;;;;;5070937;28;20552;-26
2024/01/14 06:49:43;;;;;;;0.00;0.00;;;4.50;72.80;;;;;;5076525;28;20203;-26
2024/01/14 06:52:12;;;;;;;0.00;0.00;;;4.50;72.80;;;;;;5082611;28;20199;-26
2024/01/14 06:54:39;;;;;;;0.00;0.00;;;4.50;72.80;;;;;;5081762;28;20209;-26
2024/01/14 06:57:07;;;;;;;0.00;0.00;;;4.50;72.80;;;;;;5075064;28;20224;-26
2024/01/14 06:59:34;;;;;;;0.00;0.00;;;4.50;72.80;;;;;;5084247;28;20229;-26
2024/01/14 07:02:04;;;;;;;0.00;0.00;;;4.50;72.70;;;;;;5082193;28;20203;-26
2024/01/14 07:04:31;;;;;;;0.00;0.00;;;4.50;72.70;;;;;;5086963;28;20673;-26
2024/01/14 07:06:58;;;;;;;0.00;0.00;;;4.50;72.70;;;;;;5085156;28;20230;-26
2024/01/14 07:09:30;;;;;;;0.00;0.00;;;4.50;72.70;;;;;;5079519;28;20326;-26
2024/01/14 07:12:00;;;;;;;0.00;0.00;;;4.50;72.70;;;;;;5080962;28;20217;-26
2024/01/14 07:14:28;;;;;;;0.00;0.00;;;4.40;72.60;;;;;;5069921;28;20207;-26
2024/01/14 07:16:55;;;;;;;0.00;0.00;;;4.40;72.60;;;;;;5081272;28;20229;-26
2024/01/14 07:19:25;;;;;;;0.00;0.00;;;4.40;72.60;;;;;;5086044;28;20252;-28
2024/01/14 07:21:52;;;;;;;0.00;0.00;;;4.40;72.50;;;;;;5084240;28;20757;-26
2024/01/14 07:24:20;;;;;;;0.00;0.00;;;4.40;72.60;;;;;;5081187;28;20580;-26
2024/01/14 07:26:47;;;;;;;0.00;0.00;;;4.40;72.60;;;;;;5083031;28;20214;-26
2024/01/14 07:29:17;;;;;;;0.00;0.00;;;4.40;72.70;;;;;;5081575;28;20226;-26
2024/01/14 07:31:44;;;;;;;0.00;0.00;;;4.30;72.50;;;;;;5083995;28;20612;-26
2024/01/14 07:34:13;;;;;;;0.00;0.00;;;4.30;72.50;;;;;;5085075;28;20561;-26
2024/01/14 07:36:43;;;;;;;0.00;0.00;;;4.30;72.50;;;;;;5080244;28;20752;-26
2024/01/14 07:39:12;;;;;;;0.00;0.00;;;4.30;72.50;;;;;;5087514;28;20732;-26
2024/01/14 07:41:42;;;;;;;0.00;0.00;;;4.30;72.60;;;;;;5076744;28;20282;-26
2024/01/14 07:44:11;;;;;;;0.00;0.00;;;4.30;72.70;;;;;;5081252;28;20191;-26
2024/01/14 07:46:41;;;;;;;0.00;0.00;;;4.30;72.70;;;;;;5084801;28;20685;-26
2024/01/14 07:49:08;;;;;;;0.00;0.00;;;4.30;72.80;;;;;;5084661;28;20551;-26
2024/01/14 07:51:38;;;;;;;0.00;0.00;;;4.30;72.60;;;;;;5081147;28;20260;-26
2024/01/14 07:54:08;;;;;;;0.00;0.00;;;4.20;72.70;;;;;;5084899;28;20343;-26
2024/01/14 07:56:35;;;;;;;0.00;0.00;;;4.20;73.50;;;;;;5078837;28;20237;-26
2024/01/14 07:59:02;;;;;;;0.00;0.00;;;4.30;72.80;;;;;;5093226;28;20207;-26
2024/01/14 08:01:30;;;;;;;0.00;0.00;;;4.20;72.90;;;;;;5080885;28;20304;-26
2024/01/14 08:04:00;;;;;;;0.00;0.00;;;4.20;72.70;;;;;;5072799;28;20219;-26
2024/01/14 08:06:29;;;;;;;0.00;0.00;;;4.20;72.80;;;;;;5069677;28;20253;-26
2024/01/14 08:08:57;;;;;;;0.00;0.00;;;4.20;72.70;;;;;;5070400;28;20210;-26
2024/01/14 08:11:24;;;;;;;0.00;0.00;;;4.20;72.80;;;;;;5081036;28;20290;-26
2024/01/14 08:13:51;;;;;;;0.00;0.00;;;4.20;72.90;;;;;;5081129;28;20229;-26
2024/01/14 08:16:18;;;;;;;0.00;0.00;;;4.30;72.90;;;;;;5071794;28;20245;-26
2024/01/14 08:18:46;;;;;;;0.00;0.00;;;4.30;72.80;;;;;;5083718;28;20195;-26
2024/01/14 08:21:15;;;;;;;0.00;0.00;;;4.30;73.50;;;;;;5078395;28;20210;-26
2024/01/14 08:23:45;;;;;;;0.00;0.00;;;4.30;72.80;;;;;;5079978;28;20281;-26
2024/01/14 08:26:13;;;;;;;0.00;0.00;;;4.30;72.80;;;;;;5083039;28;20194;-26
2024/01/14 08:28:40;;;;;;;0.00;0.00;;;4.30;72.80;;;;;;5085289;28;20741;-26
2024/01/14 08:31:10;;;;;;;0.00;0.00;;;4.30;72.90;;;;;;5069689;28;20208;-26
2024/01/14 08:33:42;;;;;;;0.00;0.00;;;4.30;73.00;;;;;;5068428;28;20198;-26
2024/01/14 08:36:12;;;;;;;0.00;0.00;;;4.30;72.80;;;;;;5082383;28;20199;-26
2024/01/14 08:38:39;;;;;;;0.00;0.00;;;4.30;72.80;;;;;;5081690;28;20307;-26
2024/01/14 08:41:09;;;;;;;0.00;0.00;;;4.30;72.80;;;;;;5075756;28;20650;-26
2024/01/14 08:43:39;;;;;;;0.00;0.00;;;4.30;72.90;;;;;;5075187;28;20203;-26
2024/01/14 08:46:09;;;;;;;0.00;0.00;;;4.30;72.90;;;;;;5084181;28;20219;-26
2024/01/14 08:48:36;;;;;;;0.00;0.00;;;4.30;72.90;;;;;;5075411;28;20202;-26
2024/01/14 08:51:06;;;;;;;0.00;0.00;;;4.30;73.00;;;;;;5080913;28;20198;-26
2024/01/14 08:53:38;;;;;;;0.00;0.00;;;4.30;72.90;;;;;;5085285;28;20197;-26
2024/01/14 08:56:08;;;;;;;0.00;0.00;;;4.30;73.00;;;;;;5079521;28;20314;-26
2024/01/14 08:58:37;;;;;;;0.00;0.00;;;4.30;72.80;;;;;;5082564;28;20210;-26
2024/01/14 09:01:07;;;;;;;0.00;0.00;;;4.30;72.80;;;;;;5078153;28;20203;-26
2024/01/14 09:03:34;;;;;;;0.00;0.00;;;4.30;72.80;;;;;;5084459;28;20268;-26
2024/01/14 09:06:02;;;;;;;0.00;0.00;;;4.20;72.90;;;;;;5087446;28;20296;-26
2024/01/14 09:08:29;;;;;;;0.00;0.00;;;4.30;72.90;;;;;;5082840;28;20206;-26
2024/01/14 09:10:56;;;;;;;0.00;0.00;;;4.30;73.00;;;;;;5078392;28;20195;-26
2024/01/14 09:13:25;;;;;;;0.00;0.00;;;4.30;72.90;;;;;;5084301;28;20202;-26
2024/01/14 09:15:57;;;;;;;0.00;0.00;;;4.30;72.90;;;;;;5082483;28;20220;-26
2024/01/14 09:18:27;;;;;;;0.00;0.00;;;4.30;73.00;;;;;;5083323;28;20314;-26
2024/01/14 09:20:57;;;;;;;0.00;0.00;;;4.30;72.90;;;;;;5085148;28;20256;-26
2024/01/14 09:23:29;;;;;;;0.00;0.00;;;4.30;72.80;;;;;;5081373;28;20206;-26
2024/01/14 09:25:56;;;;;;;0.00;0.00;;;4.30;72.90;;;;;;5088583;28;20700;-26
2024/01/14 09:28:24;;;;;;;0.00;0.00;;;4.30;72.90;;;;;;5084244;28;20268;-26
2024/01/14 09:30:52;;;;;;;0.00;0.00;;;4.30;73.00;;;;;;5088319;28;20211;-26
2024/01/14 09:33:21;;;;;;;0.00;0.00;;;4.30;73.00;;;;;;5078316;28;20784;-26
2024/01/14 09:35:51;;;;;;;0.00;0.00;;;4.30;73.10;;;;;;5087608;28;20285;-26
2024/01/14 09:38:20;;;;;;;0.00;0.00;;;4.30;73.10;;;;;;5075253;28;20215;-26
2024/01/14 09:40:59;;;;;;;0.00;0.00;;;4.30;73.10;;;;;;5078843;28;20220;-26
2024/01/14 09:43:35;;;;;;;0.00;0.00;;;4.40;73.00;;;;;;5084105;28;20202;-27
2024/01/14 09:46:03;;;;;;;0.00;0.00;;;4.40;73.00;;;;;;5082485;28;20210;-26
2024/01/14 09:48:34;;;;;;;0.00;0.00;;;4.40;73.00;;;;;;5088432;28;20211;-26
2024/01/14 09:51:03;;;;;;;0.00;0.00;;;4.40;73.00;;;;;;5078451;28;20218;-26
2024/01/14 09:53:31;;;;;;;0.00;0.00;;;4.40;73.00;;;;;;5080299;28;20202;-26
2024/01/14 09:56:00;;;;;;;0.00;0.00;;;4.40;73.00;;;;;;5083149;28;20200;-26
2024/01/14 09:58:28;;;;;;;0.00;0.00;;;4.40;73.00;;;;;;5089034;28;20238;-26
2024/01/14 10:01:03;;;;;;;0.00;0.00;;;4.40;73.00;;;;;;5084257;28;20198;-25
2024/01/14 10:03:34;;;;;;;0.00;0.00;;;4.40;73.00;;;;;;5083077;28;20738;-26
2024/01/14 10:06:01;;;;;;;0.00;0.00;;;4.30;72.90;;;;;;5087659;28;20226;-25
2024/01/14 10:08:29;;;;;;;0.00;0.00;;;4.30;73.00;;;;;;5079985;28;20218;-25
2024/01/14 10:10:57;;;;;;;0.00;0.00;;;4.40;73.10;;;;;;5085713;28;20575;-26
2024/01/14 10:13:27;;;;;;;0.00;0.00;;;4.40;73.00;;;;;;5084684;28;20219;-26
2024/01/14 10:15:55;;;;;;;0.00;0.00;;;4.30;72.90;;;;;;5077210;28;20212;-26
2024/01/14 10:18:25;;;;;;;0.00;0.00;;;4.30;73.00;;;;;;5080895;28;20711;-26
2024/01/14 10:20:53;;;;;;;0.00;0.00;;;4.30;73.00;;;;;;5079614;28;20738;-26
2024/01/14 10:23:23;;;;;;;0.00;0.00;;;4.40;73.10;;;;;;5082789;28;20217;-26
2024/01/14 10:25:52;;;;;;;0.00;0.00;;;4.40;73.10;;;;;;5082459;28;20203;-26
2024/01/14 10:28:22;;;;;;;0.00;0.00;;;4.40;73.20;;;;;;5085561;28;20557;-26
2024/01/14 10:30:49;;;;;;;0.00;0.00;;;4.40;73.90;;;;;;5061933;28;20365;-26
2024/01/14 10:33:17;;;;;;;0.00;0.00;;;4.40;73.10;;;;;;5080760;28;20215;-25
2024/01/14 10:35:52;;;;;;;0.00;0.00;;;4.40;73.10;;;;;;5082879;28;20199;-26
2024/01/14 10:38:25;;;;;;;0.00;0.00;;;4.40;73.10;;;;;;5084062;28;20219;-26
2024/01/14 10:40:53;;;;;;;0.00;0.00;;;4.40;73.10;;;;;;5081422;28;20195;-26
2024/01/14 10:43:24;;;;;;;0.00;0.00;;;4.40;73.20;;;;;;5079884;28;20198;-25
2024/01/14 10:45:57;;;;;;;0.00;0.00;;;4.50;73.30;;;;;;5082772;28;20240;-26
2024/01/14 10:48:28;;;;;;;0.00;0.00;;;4.50;73.20;;;;;;5077943;28;20203;-25
2024/01/14 10:51:00;;;;;;;0.00;0.00;;;4.50;73.20;;;;;;5087176;28;20211;-25
2024/01/14 10:53:56;;;;;;;0.00;0.00;;;4.50;73.20;;;;;;5082583;28;20226;-25
2024/01/14 10:56:33;;;;;;;0.00;0.00;;;4.50;73.30;;;;;;5089871;28;20230;-25
2024/01/14 10:59:02;;;;;;;0.00;0.00;;;4.50;73.20;;;;;;5080799;28;21009;-25
2024/01/14 11:01:33;;;;;;;0.00;0.00;;;4.50;73.30;;;;;;5084283;28;20294;-26
2024/01/14 11:04:01;;;;;;;0.00;0.00;;;4.60;73.30;;;;;;5084743;28;20217;-26
2024/01/14 11:06:30;;;;;;;0.00;0.00;;;4.60;73.30;;;;;;5071672;28;20612;-25
2024/01/14 11:09:00;;;;;;;0.00;0.00;;;4.60;73.30;;;;;;5082537;28;20207;-26
2024/01/14 11:11:35;;;;;;;0.00;0.00;;;4.60;73.30;;;;;;5064933;28;20630;-26
2024/01/14 11:14:14;;;;;;;0.00;0.00;;;4.60;73.20;;;;;;5076936;28;20210;-26
2024/01/14 11:16:43;;;;;;;0.00;0.00;;;4.60;73.30;;;;;;5078246;28;20199;-26
2024/01/14 11:19:19;;;;;;;0.00;0.00;;;4.60;73.30;;;;;;5087173;28;20211;-26
2024/01/14 11:22:22;;;;;;;0.00;0.00;;;4.70;73.30;;;;;;5083768;28;20349;-26
2024/01/14 11:25:03;;;;;;;0.00;0.00;;;4.70;73.10;;;;;;5071443;28;20203;-26
2024/01/14 11:27:34;;;;;;;0.00;0.00;;;4.60;73.00;;;;;;5073127;28;20294;-26
2024/01/14 11:30:02;;;;;;;0.00;0.00;;;4.60;73.10;;;;;;5082277;28;20241;-26
2024/01/14 11:32:32;;;;;;;0.00;0.00;;;4.60;73.10;;;;;;5073872;28;20279;-26
2024/01/14 11:35:02;;;;;;;0.00;0.00;;;4.60;73.10;;;;;;5078476;28;20219;-26
2024/01/14 11:37:30;;;;;;;0.00;0.00;;;4.60;73.10;;;;;;5077382;28;20227;-26
2024/01/14 11:40:07;;;;;;;0.00;0.00;;;4.60;73.20;;;;;;5074476;28;20256;-26
2024/01/14 11:42:36;;;;;;;0.00;0.00;;;4.60;73.20;;;;;;5081127;28;20684;-26
2024/01/14 11:45:24;;;;;;;0.00;0.00;;;4.70;73.20;;;;;;5078040;28;20715;-25
2024/01/14 11:47:56;;;;;;;0.00;0.00;;;4.70;73.20;;;;;;5079393;28;20203;-26
2024/01/14 11:50:25;;;;;;;0.00;0.00;;;4.70;73.20;;;;;;5078119;28;20280;-25
2024/01/14 11:53:00;;;;;;;0.00;0.00;;;4.70;73.20;;;;;;5082557;28;20318;-26
2024/01/14 11:55:34;;;;;;;0.00;0.00;;;4.70;73.30;;;;;;5074186;28;20611;-26
2024/01/14 11:58:13;;;;;;;0.00;0.00;;;4.70;73.40;;;;;;5082316;28;20218;-26
2024/01/14 12:00:42;;;;;;;0.00;0.00;;;4.70;73.30;;;;;;5081108;28;20211;-26
2024/01/14 12:03:14;;;;;;;0.00;0.00;;;4.70;73.30;;;;;;5082244;28;20199;-26
2024/01/14 12:05:44;;;;;;;0.00;0.00;;;4.70;73.20;;;;;;5074073;28;20207;-26
2024/01/14 12:08:14;;;;;;;0.00;0.00;;;4.80;73.20;;;;;;5082626;28;20215;-26
2024/01/14 12:10:41;;;;;;;0.00;0.00;;;4.80;73.20;;;;;;5083788;28;20234;-26
2024/01/14 12:13:09;;;;;;;0.00;0.00;;;4.70;73.10;;;;;;5079866;28;20709;-26
2024/01/14 12:15:39;;;;;;;0.00;0.00;;;4.80;73.20;;;;;;5081247;28;20907;-25
2024/01/14 12:18:17;;;;;;;0.00;0.00;;;4.80;73.20;;;;;;5058614;28;20234;-26
2024/01/14 12:20:48;;;;;;;0.00;0.00;;;4.70;73.10;;;;;;5085364;28;20210;-26
2024/01/14 12:23:18;;;;;;;0.00;0.00;;;4.80;73.10;;;;;;5081830;28;20218;-25
2024/01/14 12:25:45;;;;;;;0.00;0.00;;;4.80;73.20;;;;;;5082523;28;20226;-26
2024/01/14 12:28:19;;;;;;;0.00;0.00;;;4.80;73.30;;;;;;5075078;28;20207;-25
2024/01/14 12:30:47;;;;;;;0.00;0.00;;;4.80;73.20;;;;;;5075665;28;20225;-26
2024/01/14 12:33:14;;;;;;;0.00;0.00;;;4.80;73.20;;;;;;5081265;28;20225;-26
2024/01/14 12:35:42;;;;;;;0.00;0.00;;;4.80;73.20;;;;;;5082896;28;20214;-26
2024/01/14 12:38:09;;;;;;;0.00;0.00;;;4.80;73.20;;;;;;5080848;28;20215;-26
2024/01/14 12:40:37;;;;;;;0.00;0.00;;;4.80;73.20;;;;;;5086917;28;20272;-26
2024/01/14 12:43:08;;;;;;;0.00;0.00;;;4.80;73.10;;;;;;5087400;28;20222;-26
2024/01/14 12:45:36;;;;;;;0.00;0.00;;;4.80;73.10;;;;;;5077602;28;20209;-27
2024/01/14 12:48:05;;;;;;;0.00;0.00;;;4.80;73.40;;;;;;5072683;28;20215;-26
2024/01/14 12:50:39;;;;;;;0.00;0.00;;;4.80;73.00;;;;;;5081660;28;20312;-25
2024/01/14 12:53:11;;;;;;;0.00;0.00;;;4.80;73.00;;;;;;5085990;28;20691;-26
2024/01/14 12:55:40;;;;;;;0.00;0.00;;;4.80;73.00;;;;;;5083954;28;20945;-26
2024/01/14 12:58:08;;;;;;;0.00;0.00;;;4.80;73.10;;;;;;5082392;28;20385;-26
2024/01/14 13:00:35;;;;;;;0.00;0.00;;;4.70;73.10;;;;;;5083508;28;20677;-27
2024/01/14 13:03:11;;;;;;;0.00;0.00;;;4.70;73.90;;;;;;5062395;28;20211;-26
2024/01/14 13:05:41;;;;;;;0.00;0.00;;;4.80;73.20;;;;;;5084712;28;20206;-26
2024/01/14 13:08:08;;;;;;;0.00;0.00;;;4.80;73.20;;;;;;5087521;28;20306;-26